Time;durP1;ratioP1;P1;durP2;ratioP2;P2;SDS_P1;SDS_P2;PMS_P1;PMS_P2;Temp;Humidity;BMP_temperature;BMP_pressure;BME280_temperature;BME280_humidity;BME280_pressure;Samples;Min_cycle;Max_cycle;Signal;HPM_P1;HPM_P2
2023/04/15 00:00:25;;;;;;;;;;;11.10;46.70;;;;;;5030423;28;19995;-58
2023/04/15 00:02:51;;;;;;;;;;;11.10;46.60;;;;;;5031730;28;20255;-58
2023/04/15 00:05:17;;;;;;;;;;;11.20;46.60;;;;;;5029013;28;19999;-58
2023/04/15 00:07:42;;;;;;;;;;;11.10;46.60;;;;;;5031671;28;20394;-58
2023/04/15 00:10:08;;;;;;;;;;;11.20;46.50;;;;;;5030629;28;19913;-58
2023/04/15 00:12:33;;;;;;;;;;;11.10;46.50;;;;;;5031651;28;20254;-58
2023/04/15 00:14:59;;;;;;;;;;;11.20;46.50;;;;;;5031164;28;19955;-58
2023/04/15 00:17:24;;;;;;;;;;;11.20;46.50;;;;;;5030437;28;19964;-58
2023/04/15 00:19:50;;;;;;;;;;;11.20;46.60;;;;;;5031244;28;19916;-59
2023/04/15 00:22:16;;;;;;;;;;;11.20;46.50;;;;;;5012360;28;19921;-58
2023/04/15 00:24:41;;;;;;;;;;;11.20;46.60;;;;;;5011878;28;19914;-58
2023/04/15 00:27:07;;;;;;;;;;;11.20;46.60;;;;;;5027458;28;19945;-61
2023/04/15 00:29:32;;;;;;;;;;;11.20;46.60;;;;;;5025015;28;19917;-58
2023/04/15 00:31:58;;;;;;;;;;;11.30;46.60;;;;;;5031229;28;20436;-58
2023/04/15 00:34:23;;;;;;;;;;;11.30;46.60;;;;;;5029506;28;20442;-58
2023/04/15 00:36:49;;;;;;;;;;;11.30;46.70;;;;;;5043887;28;19913;-58
2023/04/15 00:39:15;;;;;;;;;;;11.30;46.70;;;;;;5031370;28;20149;-58
2023/04/15 00:41:41;;;;;;;;;;;11.30;46.70;;;;;;5029607;28;19917;-59
2023/04/15 00:44:07;;;;;;;;;;;11.30;46.70;;;;;;5031431;28;19956;-59
2023/04/15 00:46:34;;;;;;;;;;;11.30;46.80;;;;;;5028277;28;20340;-59
2023/04/15 00:49:01;;;;;;;;;;;11.30;46.90;;;;;;5011193;28;19921;-58
2023/04/15 00:51:27;;;;;;;;;;;11.30;46.90;;;;;;5010987;28;19918;-58
2023/04/15 00:53:52;;;;;;;;;;;11.30;47.00;;;;;;5014768;28;20070;-57
2023/04/15 00:56:19;;;;;;;;;;;11.30;47.30;;;;;;5015975;28;20359;-58
2023/04/15 00:58:44;;;;;;;;;;;11.30;47.30;;;;;;5032031;28;20268;-59
2023/04/15 01:01:10;;;;;;;;;;;11.20;47.40;;;;;;5033718;28;19925;-58
2023/04/15 01:03:35;;;;;;;;;;;11.30;47.40;;;;;;5033311;28;19920;-57
2023/04/15 01:06:01;;;;;;;;;;;11.30;47.30;;;;;;5034282;28;20288;-58
2023/04/15 01:08:27;;;;;;;;;;;11.30;47.70;;;;;;5032527;28;20328;-63
2023/04/15 01:10:57;;;;;;;;;;;11.30;48.10;;;;;;5029110;28;20007;-60
2023/04/15 01:13:23;;;;;;;;;;;11.30;48.50;;;;;;5035109;28;19913;-58
2023/04/15 01:15:48;;;;;;;;;;;11.20;48.80;;;;;;5032309;28;19975;-58
2023/04/15 01:18:14;;;;;;;;;;;11.20;49.40;;;;;;5034533;28;20306;-58
2023/04/15 01:20:40;;;;;;;;;;;11.30;49.70;;;;;;5032571;28;19917;-58
2023/04/15 01:23:06;;;;;;;;;;;11.30;49.70;;;;;;5034394;28;19920;-58
2023/04/15 01:25:32;;;;;;;;;;;11.30;49.90;;;;;;5031901;28;19920;-58
2023/04/15 01:27:58;;;;;;;;;;;11.40;50.20;;;;;;5034383;28;19921;-58
2023/04/15 01:30:24;;;;;;;;;;;11.40;50.10;;;;;;5032737;28;19971;-58
2023/04/15 01:32:50;;;;;;;;;;;11.40;50.00;;;;;;5030831;28;19952;-59
2023/04/15 01:35:16;;;;;;;;;;;11.40;50.20;;;;;;5034041;28;19921;-58
2023/04/15 01:37:41;;;;;;;;;;;11.50;50.40;;;;;;5043780;28;19939;-58
2023/04/15 01:40:07;;;;;;;;;;;11.50;50.40;;;;;;5054062;28;19971;-57
2023/04/15 01:42:33;;;;;;;;;;;11.50;50.20;;;;;;5016465;28;20361;-57
2023/04/15 01:44:59;;;;;;;;;;;11.60;50.30;;;;;;5024187;28;19980;-57
2023/04/15 01:47:25;;;;;;;;;;;11.50;50.10;;;;;;5034710;28;19917;-58
2023/04/15 01:49:51;;;;;;;;;;;11.60;49.90;;;;;;5034364;28;19951;-58
2023/04/15 01:52:17;;;;;;;;;;;11.60;49.80;;;;;;5034050;28;19913;-58
2023/04/15 01:54:42;;;;;;;;;;;11.50;49.70;;;;;;5036747;28;19990;-57
2023/04/15 01:57:08;;;;;;;;;;;11.60;49.50;;;;;;5053978;28;20357;-58
2023/04/15 01:59:34;;;;;;;;;;;11.60;49.50;;;;;;5046256;28;19913;-58
2023/04/15 02:02:00;;;;;;;;;;;11.60;49.40;;;;;;5034061;28;20337;-58
2023/04/15 02:04:26;;;;;;;;;;;11.60;49.40;;;;;;5034016;28;20462;-58
2023/04/15 02:06:52;;;;;;;;;;;11.60;49.30;;;;;;5033164;28;19932;-58
2023/04/15 02:09:17;;;;;;;;;;;11.60;49.20;;;;;;5033821;28;19917;-58
2023/04/15 02:11:43;;;;;;;;;;;11.50;49.20;;;;;;5041595;28;19909;-58
2023/04/15 02:14:09;;;;;;;;;;;11.50;49.20;;;;;;5054044;28;20312;-58
2023/04/15 02:16:34;;;;;;;;;;;11.50;49.20;;;;;;5053822;28;19944;-58
2023/04/15 02:19:00;;;;;;;;;;;11.50;49.50;;;;;;5052463;28;19909;-58
2023/04/15 02:21:26;;;;;;;;;;;11.50;49.90;;;;;;5053450;28;20083;-58
2023/04/15 02:23:52;;;;;;;;;;;11.50;49.70;;;;;;5053839;28;19909;-60
2023/04/15 02:26:18;;;;;;;;;;;11.50;49.60;;;;;;5053511;28;19940;-58
2023/04/15 02:28:44;;;;;;;;;;;11.50;49.80;;;;;;5052326;28;19909;-58
2023/04/15 02:31:09;;;;;;;;;;;11.50;49.90;;;;;;5053153;28;19921;-59
2023/04/15 02:33:36;;;;;;;;;;;11.50;49.80;;;;;;5054000;28;19908;-59
2023/04/15 02:36:02;;;;;;;;;;;11.40;49.70;;;;;;5038712;28;20004;-58
2023/04/15 02:38:27;;;;;;;;;;;11.50;49.60;;;;;;5033616;28;20055;-58
2023/04/15 02:40:53;;;;;;;;;;;11.40;49.50;;;;;;5033438;28;19913;-58
2023/04/15 02:43:18;;;;;;;;;;;11.40;49.50;;;;;;5031934;28;19920;-58
2023/04/15 02:45:44;;;;;;;;;;;11.40;49.40;;;;;;5033247;28;20039;-59
2023/04/15 02:48:09;;;;;;;;;;;11.40;49.30;;;;;;5033636;28;19924;-66
2023/04/15 02:50:37;;;;;;;;;;;11.30;49.30;;;;;;5033435;28;20423;-59
2023/04/15 02:53:04;;;;;;;;;;;11.30;49.20;;;;;;5033434;28;20007;-61
2023/04/15 02:55:30;;;;;;;;;;;11.30;49.20;;;;;;5033048;28;19921;-58
2023/04/15 02:57:57;;;;;;;;;;;11.30;49.20;;;;;;5032840;28;19913;-58
2023/04/15 03:00:24;;;;;;;;;;;11.20;49.30;;;;;;5033143;28;20351;-59
2023/04/15 03:02:54;;;;;;;;;;;11.20;49.40;;;;;;5033135;28;20327;-59
2023/04/15 03:05:20;;;;;;;;;;;11.20;49.30;;;;;;5033158;28;19913;-58
2023/04/15 03:07:46;;;;;;;;;;;11.10;49.40;;;;;;5032916;28;19919;-58
2023/04/15 03:10:11;;;;;;;;;;;11.10;49.40;;;;;;5032599;28;20319;-57
2023/04/15 03:12:37;;;;;;;;;;;11.10;49.40;;;;;;5032469;28;20321;-57
2023/04/15 03:15:02;;;;;;;;;;;11.10;49.50;;;;;;5032460;28;19921;-57
2023/04/15 03:17:28;;;;;;;;;;;11.10;49.50;;;;;;5031409;28;20005;-57
2023/04/15 03:19:53;;;;;;;;;;;11.10;49.50;;;;;;5032408;28;19913;-60
2023/04/15 03:22:19;;;;;;;;;;;11.10;49.60;;;;;;5032537;28;19920;-61
2023/04/15 03:24:44;;;;;;;;;;;11.00;49.60;;;;;;5032449;28;20289;-60
2023/04/15 03:27:10;;;;;;;;;;;11.10;49.60;;;;;;5032270;28;19913;-59
2023/04/15 03:29:35;;;;;;;;;;;11.10;49.60;;;;;;5032021;28;19924;-59
2023/04/15 03:32:00;;;;;;;;;;;11.10;49.60;;;;;;5031911;28;19909;-59
2023/04/15 03:34:26;;;;;;;;;;;11.10;49.70;;;;;;5032350;28;19921;-59
2023/04/15 03:36:52;;;;;;;;;;;11.10;49.70;;;;;;5052086;28;19909;-59
2023/04/15 03:39:17;;;;;;;;;;;11.10;49.70;;;;;;5037459;28;19921;-59
2023/04/15 03:41:43;;;;;;;;;;;11.10;49.60;;;;;;5015133;28;19913;-59
2023/04/15 03:44:08;;;;;;;;;;;11.10;49.70;;;;;;5025122;28;20012;-61
2023/04/15 03:46:33;;;;;;;;;;;11.00;49.60;;;;;;5031735;28;20001;-59
2023/04/15 03:48:59;;;;;;;;;;;11.00;49.60;;;;;;5032020;28;19920;-58
2023/04/15 03:51:25;;;;;;;;;;;11.00;49.60;;;;;;5031374;28;19960;-58
2023/04/15 03:53:50;;;;;;;;;;;11.00;49.60;;;;;;5030276;28;19913;-59
2023/04/15 03:56:16;;;;;;;;;;;10.90;49.60;;;;;;5031774;28;19923;-58
2023/04/15 03:58:41;;;;;;;;;;;10.90;49.50;;;;;;5031859;28;20280;-59
2023/04/15 04:01:07;;;;;;;;;;;10.80;49.50;;;;;;5031406;28;20008;-59
2023/04/15 04:03:32;;;;;;;;;;;10.70;49.50;;;;;;5031810;28;19920;-59
2023/04/15 04:05:58;;;;;;;;;;;10.70;49.60;;;;;;5031327;28;19913;-58
2023/04/15 04:08:23;;;;;;;;;;;10.60;49.60;;;;;;5031789;28;19995;-59
2023/04/15 04:10:49;;;;;;;;;;;10.60;49.70;;;;;;5031631;28;20019;-58
2023/04/15 04:13:14;;;;;;;;;;;10.50;49.80;;;;;;5031844;28;19964;-58
2023/04/15 04:15:40;;;;;;;;;;;10.50;49.90;;;;;;5031119;28;19928;-58
2023/04/15 04:18:05;;;;;;;;;;;10.50;49.90;;;;;;5031293;28;20288;-59
2023/04/15 04:20:31;;;;;;;;;;;10.50;49.90;;;;;;5031089;28;19975;-58
2023/04/15 04:22:56;;;;;;;;;;;10.50;49.90;;;;;;5031333;28;19971;-59
2023/04/15 04:25:22;;;;;;;;;;;10.60;50.00;;;;;;5031180;28;19913;-59
2023/04/15 04:27:47;;;;;;;;;;;10.60;50.10;;;;;;5031367;28;20431;-61
2023/04/15 04:30:12;;;;;;;;;;;10.70;50.10;;;;;;5031009;28;19948;-61
2023/04/15 04:32:38;;;;;;;;;;;10.70;50.10;;;;;;5031588;28;19913;-58
2023/04/15 04:35:03;;;;;;;;;;;10.70;50.20;;;;;;5036193;28;19973;-67
2023/04/15 04:37:29;;;;;;;;;;;10.70;50.20;;;;;;5033352;28;19920;-58
2023/04/15 04:39:55;;;;;;;;;;;10.80;50.30;;;;;;5031123;28;19928;-58
2023/04/15 04:42:20;;;;;;;;;;;10.80;50.40;;;;;;5031487;28;19913;-58
2023/04/15 04:44:46;;;;;;;;;;;10.80;50.40;;;;;;5031148;28;19924;-58
2023/04/15 04:47:11;;;;;;;;;;;10.90;50.50;;;;;;5030966;28;19968;-58
2023/04/15 04:49:37;;;;;;;;;;;10.90;50.50;;;;;;5031032;28;19999;-58
2023/04/15 04:52:02;;;;;;;;;;;11.00;50.50;;;;;;5030892;28;19916;-58
2023/04/15 04:54:29;;;;;;;;;;;11.00;50.50;;;;;;5030717;28;19921;-58
2023/04/15 04:56:56;;;;;;;;;;;11.10;50.70;;;;;;5031120;28;19913;-58
2023/04/15 04:59:22;;;;;;;;;;;11.10;50.80;;;;;;5031579;28;19944;-58
2023/04/15 05:01:47;;;;;;;;;;;11.20;50.90;;;;;;5030859;28;19994;-58
2023/04/15 05:04:13;;;;;;;;;;;11.30;51.20;;;;;;5031325;28;19913;-59
2023/04/15 05:06:38;;;;;;;;;;;11.30;51.50;;;;;;5030719;28;20357;-59
2023/04/15 05:09:04;;;;;;;;;;;11.40;51.60;;;;;;5030969;28;19914;-60
2023/04/15 05:11:29;;;;;;;;;;;11.50;51.50;;;;;;5030932;28;19917;-59
2023/04/15 05:13:55;;;;;;;;;;;11.50;51.70;;;;;;5031322;28;20035;-58
2023/04/15 05:16:20;;;;;;;;;;;11.60;51.80;;;;;;5030507;28;19932;-59
2023/04/15 05:18:46;;;;;;;;;;;11.70;51.60;;;;;;5030968;28;19920;-58
2023/04/15 05:21:11;;;;;;;;;;;11.80;51.60;;;;;;5030222;28;19913;-58
2023/04/15 05:23:37;;;;;;;;;;;11.80;51.40;;;;;;5030502;28;19917;-58
2023/04/15 05:26:02;;;;;;;;;;;12.00;51.40;;;;;;5030476;28;20491;-58
2023/04/15 05:28:28;;;;;;;;;;;12.00;51.40;;;;;;5031082;28;19972;-58
2023/04/15 05:30:53;;;;;;;;;;;12.10;51.80;;;;;;5029168;28;19936;-58
2023/04/15 05:33:19;;;;;;;;;;;12.20;51.90;;;;;;5030448;28;19987;-58
2023/04/15 05:35:45;;;;;;;;;;;12.20;52.20;;;;;;5030186;28;19921;-58
2023/04/15 05:38:10;;;;;;;;;;;12.30;52.20;;;;;;5030675;28;19917;-58
2023/04/15 05:40:35;;;;;;;;;;;12.40;52.20;;;;;;5031465;28;20340;-58
2023/04/15 05:43:01;;;;;;;;;;;12.50;52.40;;;;;;5033938;28;19913;-58
2023/04/15 05:45:26;;;;;;;;;;;12.60;52.50;;;;;;5034525;28;19944;-58
2023/04/15 05:47:53;;;;;;;;;;;12.70;52.60;;;;;;5034151;28;19920;-58
2023/04/15 05:50:18;;;;;;;;;;;12.70;52.80;;;;;;5034256;28;19996;-58
2023/04/15 05:52:44;;;;;;;;;;;12.80;52.80;;;;;;5034014;28;19963;-58
2023/04/15 05:55:10;;;;;;;;;;;12.90;52.80;;;;;;5034132;28;20269;-59
2023/04/15 05:57:36;;;;;;;;;;;13.00;52.80;;;;;;5034024;28;19920;-59
2023/04/15 06:00:02;;;;;;;;;;;13.10;52.80;;;;;;5033958;28;20304;-59
2023/04/15 06:02:28;;;;;;;;;;;13.20;52.80;;;;;;5032875;28;19970;-59
2023/04/15 06:04:53;;;;;;;;;;;13.30;52.80;;;;;;5033781;28;20373;-59
2023/04/15 06:07:18;;;;;;;;;;;13.40;52.70;;;;;;5032247;28;20400;-59
2023/04/15 06:09:44;;;;;;;;;;;13.50;52.60;;;;;;5033895;28;19913;-59
2023/04/15 06:12:11;;;;;;;;;;;13.50;52.60;;;;;;5033355;28;19966;-59
2023/04/15 06:14:38;;;;;;;;;;;13.70;52.50;;;;;;5033819;28;20377;-59
2023/04/15 06:17:03;;;;;;;;;;;13.70;52.30;;;;;;5021093;28;19956;-59
2023/04/15 06:19:29;;;;;;;;;;;13.80;52.30;;;;;;5021574;28;20009;-59
2023/04/15 06:21:54;;;;;;;;;;;13.80;52.20;;;;;;5033359;28;19971;-58
2023/04/15 06:24:20;;;;;;;;;;;13.90;52.10;;;;;;5033956;28;19920;-59
2023/04/15 06:26:45;;;;;;;;;;;14.00;51.90;;;;;;5033364;28;20008;-59
2023/04/15 06:29:11;;;;;;;;;;;14.00;51.90;;;;;;5033740;28;20357;-59
2023/04/15 06:31:36;;;;;;;;;;;14.10;51.80;;;;;;5033303;28;20369;-59
2023/04/15 06:34:02;;;;;;;;;;;14.20;51.70;;;;;;5032450;28;19920;-58
2023/04/15 06:36:27;;;;;;;;;;;14.20;51.60;;;;;;5039045;28;19921;-59
2023/04/15 06:38:53;;;;;;;;;;;14.30;51.50;;;;;;5033330;28;19920;-63
2023/04/15 06:41:18;;;;;;;;;;;14.30;51.40;;;;;;5033029;28;19913;-59
2023/04/15 06:43:43;;;;;;;;;;;14.30;51.40;;;;;;5033305;28;19913;-58
2023/04/15 06:46:09;;;;;;;;;;;14.30;51.30;;;;;;5032991;28;20052;-58
2023/04/15 06:48:35;;;;;;;;;;;14.30;51.30;;;;;;5033594;28;19917;-61
2023/04/15 06:51:00;;;;;;;;;;;14.30;51.40;;;;;;5032970;28;20004;-59
2023/04/15 06:53:26;;;;;;;;;;;14.20;51.60;;;;;;5033204;28;20352;-58
2023/04/15 06:55:52;;;;;;;;;;;14.20;51.90;;;;;;5032743;28;19925;-59
2023/04/15 06:58:17;;;;;;;;;;;14.10;52.20;;;;;;5033258;28;20360;-59
2023/04/15 07:00:43;;;;;;;;;;;14.10;52.50;;;;;;5032773;28;19924;-59
2023/04/15 07:03:10;;;;;;;;;;;14.00;52.90;;;;;;5033337;28;19917;-58
2023/04/15 07:05:35;;;;;;;;;;;13.90;53.10;;;;;;5033011;28;19913;-58
2023/04/15 07:08:01;;;;;;;;;;;13.90;53.50;;;;;;5032927;28;19963;-58
2023/04/15 07:10:26;;;;;;;;;;;13.80;53.80;;;;;;5032799;28;19917;-59
2023/04/15 07:12:51;;;;;;;;;;;13.80;54.10;;;;;;5032736;28;19967;-59
2023/04/15 07:15:17;;;;;;;;;;;13.80;54.30;;;;;;5032685;28;19960;-58
2023/04/15 07:17:42;;;;;;;;;;;13.70;54.60;;;;;;5033042;28;19944;-58
2023/04/15 07:20:08;;;;;;;;;;;13.70;54.90;;;;;;5031329;28;19963;-59
2023/04/15 07:22:34;;;;;;;;;;;13.80;55.20;;;;;;5032511;28;19958;-58
2023/04/15 07:24:59;;;;;;;;;;;13.80;56.10;;;;;;5032356;28;20332;-59
2023/04/15 07:27:25;;;;;;;;;;;13.80;56.60;;;;;;5032511;28;20312;-59
2023/04/15 07:29:51;;;;;;;;;;;13.80;57.40;;;;;;5032303;28;19936;-59
2023/04/15 07:32:16;;;;;;;;;;;13.80;57.90;;;;;;5031773;28;19921;-60
2023/04/15 07:34:42;;;;;;;;;;;13.80;58.40;;;;;;5033114;28;19983;-59
2023/04/15 07:37:07;;;;;;;;;;;13.80;58.80;;;;;;5031880;28;20391;-59
2023/04/15 07:39:32;;;;;;;;;;;13.70;59.20;;;;;;5032148;28;19925;-60
2023/04/15 07:41:58;;;;;;;;;;;13.80;59.40;;;;;;5032018;28;19909;-60
2023/04/15 07:44:24;;;;;;;;;;;13.80;59.70;;;;;;5032198;28;20001;-60
2023/04/15 07:46:50;;;;;;;;;;;13.80;60.10;;;;;;5032276;28;20387;-60
2023/04/15 07:49:15;;;;;;;;;;;13.80;60.40;;;;;;5032489;28;19917;-60
2023/04/15 07:51:40;;;;;;;;;;;13.80;60.90;;;;;;5032298;28;19914;-60
2023/04/15 07:54:06;;;;;;;;;;;13.80;61.30;;;;;;5032397;28;19921;-60
2023/04/15 07:56:31;;;;;;;;;;;13.80;61.20;;;;;;5032099;28;19917;-60
2023/04/15 07:58:57;;;;;;;;;;;13.80;61.40;;;;;;5032237;28;19921;-60
2023/04/15 08:01:22;;;;;;;;;;;13.80;61.50;;;;;;5031924;28;20047;-60
2023/04/15 08:03:48;;;;;;;;;;;13.80;61.70;;;;;;5031748;28;19921;-61
2023/04/15 08:06:13;;;;;;;;;;;13.90;61.60;;;;;;5032044;28;19936;-61
2023/04/15 08:08:39;;;;;;;;;;;13.90;61.60;;;;;;5032160;28;20368;-61
2023/04/15 08:11:04;;;;;;;;;;;13.90;62.00;;;;;;5031644;28;20365;-59
2023/04/15 08:13:30;;;;;;;;;;;14.00;62.20;;;;;;5032104;28;19913;-61
2023/04/15 08:16:13;;;;;;;;;;;14.00;62.30;;;;;;5031504;28;19917;-59
2023/04/15 08:18:38;;;;;;;;;;;14.00;62.20;;;;;;5031912;28;19914;-59
2023/04/15 08:21:04;;;;;;;;;;;14.00;61.90;;;;;;5031433;28;19923;-61
2023/04/15 08:23:30;;;;;;;;;;;14.00;62.10;;;;;;5031991;28;19959;-59
2023/04/15 08:25:56;;;;;;;;;;;14.00;61.80;;;;;;5031413;28;19914;-59
2023/04/15 08:28:23;;;;;;;;;;;13.90;62.00;;;;;;5031906;28;19914;-60
2023/04/15 08:30:49;;;;;;;;;;;14.00;62.20;;;;;;5031912;28;19914;-59
2023/04/15 08:33:14;;;;;;;;;;;14.00;62.40;;;;;;5031255;28;19913;-59
2023/04/15 08:35:40;;;;;;;;;;;14.00;62.60;;;;;;5041428;28;19960;-59
2023/04/15 08:38:05;;;;;;;;;;;14.10;62.30;;;;;;5051473;28;19963;-59
2023/04/15 08:40:39;;;;;;;;;;;14.00;62.30;;;;;;5051119;28;19921;-60
2023/04/15 08:43:05;;;;;;;;;;;14.10;62.60;;;;;;5050803;28;19913;-60
2023/04/15 08:45:31;;;;;;;;;;;14.20;62.80;;;;;;5043555;28;19917;-61
2023/04/15 08:47:57;;;;;;;;;;;14.20;63.00;;;;;;5027071;28;19917;-60
2023/04/15 08:50:24;;;;;;;;;;;14.30;62.80;;;;;;5031025;28;19918;-60
2023/04/15 08:52:52;;;;;;;;;;;14.30;62.60;;;;;;5031585;28;19920;-60
2023/04/15 08:55:18;;;;;;;;;;;14.40;62.90;;;;;;5024377;28;19927;-60
2023/04/15 08:57:44;;;;;;;;;;;14.40;62.90;;;;;;5011650;28;19918;-60
2023/04/15 09:00:09;;;;;;;;;;;14.40;62.80;;;;;;5015925;28;20506;-60
2023/04/15 09:02:35;;;;;;;;;;;14.50;63.00;;;;;;5030433;28;19913;-60
2023/04/15 09:05:03;;;;;;;;;;;14.60;62.90;;;;;;5012148;28;19964;-60
2023/04/15 09:07:29;;;;;;;;;;;14.70;63.10;;;;;;5011538;28;19964;-59
2023/04/15 09:09:54;;;;;;;;;;;14.70;63.00;;;;;;5029393;28;19917;-60
2023/04/15 09:12:20;;;;;;;;;;;14.80;62.90;;;;;;5031112;28;19933;-60
2023/04/15 09:14:46;;;;;;;;;;;14.80;63.20;;;;;;5030238;28;19925;-60
2023/04/15 09:17:12;;;;;;;;;;;14.80;63.20;;;;;;5034424;28;19913;-60
2023/04/15 09:19:37;;;;;;;;;;;14.90;63.40;;;;;;5017107;28;19917;-61
2023/04/15 09:22:03;;;;;;;;;;;15.00;63.30;;;;;;5014923;28;20357;-65
2023/04/15 09:24:37;;;;;;;;;;;15.00;63.50;;;;;;5030215;28;19917;-60
2023/04/15 09:27:02;;;;;;;;;;;15.10;63.40;;;;;;5034611;28;20280;-60
2023/04/15 09:29:27;;;;;;;;;;;15.10;63.20;;;;;;5033569;28;19917;-61
2023/04/15 09:31:53;;;;;;;;;;;15.10;63.60;;;;;;5029005;28;19936;-61
2023/04/15 09:34:19;;;;;;;;;;;15.20;63.40;;;;;;5023382;28;19925;-60
2023/04/15 09:36:50;;;;;;;;;;;15.20;63.30;;;;;;5052595;28;19935;-60
2023/04/15 09:39:16;;;;;;;;;;;15.20;62.80;;;;;;5033236;28;20390;-60
2023/04/15 09:41:43;;;;;;;;;;;15.10;62.70;;;;;;5014738;28;20051;-60
2023/04/15 09:44:21;;;;;;;;;;;15.10;62.70;;;;;;5023682;28;19913;-60
2023/04/15 09:46:47;;;;;;;;;;;15.00;62.70;;;;;;5034468;28;19983;-60
2023/04/15 09:49:12;;;;;;;;;;;15.00;62.80;;;;;;5023550;28;20389;-60
2023/04/15 09:51:38;;;;;;;;;;;14.80;62.80;;;;;;5014842;28;20285;-60
2023/04/15 09:54:03;;;;;;;;;;;14.80;62.90;;;;;;5023121;28;20349;-60
2023/04/15 09:56:37;;;;;;;;;;;14.80;63.00;;;;;;5034088;28;19917;-60
2023/04/15 09:59:03;;;;;;;;;;;14.70;63.00;;;;;;5026551;28;19920;-60
2023/04/15 10:01:29;;;;;;;;;;;14.70;63.20;;;;;;5013226;28;20360;-60
2023/04/15 10:03:56;;;;;;;;;;;14.70;63.40;;;;;;5014622;28;19957;-60
2023/04/15 10:06:22;;;;;;;;;;;14.70;63.60;;;;;;5014084;28;20276;-60
2023/04/15 10:08:48;;;;;;;;;;;14.70;63.60;;;;;;5034501;28;19920;-60
2023/04/15 10:11:14;;;;;;;;;;;14.70;63.40;;;;;;5031974;28;20634;-60
2023/04/15 10:13:40;;;;;;;;;;;14.70;63.40;;;;;;5034297;28;19920;-63
2023/04/15 10:16:06;;;;;;;;;;;14.70;63.60;;;;;;5033755;28;19917;-60
2023/04/15 10:18:34;;;;;;;;;;;14.70;63.40;;;;;;5034529;28;19936;-59
2023/04/15 10:21:00;;;;;;;;;;;14.60;63.40;;;;;;5033998;28;20320;-60
2023/04/15 10:23:26;;;;;;;;;;;14.60;63.60;;;;;;5034190;28;19914;-59
2023/04/15 10:25:53;;;;;;;;;;;14.60;63.80;;;;;;5050545;28;19919;-60
2023/04/15 10:28:19;;;;;;;;;;;14.60;63.70;;;;;;5051001;28;19919;-60
2023/04/15 10:30:46;;;;;;;;;;;14.70;63.80;;;;;;5032487;28;19924;-60
2023/04/15 10:33:12;;;;;;;;;;;14.60;64.00;;;;;;5033870;28;19909;-60
2023/04/15 10:35:38;;;;;;;;;;;14.70;64.00;;;;;;5039297;28;19930;-64
2023/04/15 10:38:24;;;;;;;;;;;14.70;64.00;;;;;;5041140;28;19947;-61
2023/04/15 10:40:49;;;;;;;;;;;14.70;63.90;;;;;;5048230;28;19970;-61
2023/04/15 10:43:24;;;;;;;;;;;14.70;63.90;;;;;;5033583;28;19913;-60
2023/04/15 10:45:50;;;;;;;;;;;14.80;64.10;;;;;;5030443;28;20435;-63
2023/04/15 10:48:15;;;;;;;;;;;14.80;64.10;;;;;;5033632;28;19917;-60
2023/04/15 10:50:54;;;;;;;;;;;14.80;64.10;;;;;;5030733;28;19940;-62
2023/04/15 10:53:25;;;;;;;;;;;14.80;64.10;;;;;;5033582;28;19943;-60
2023/04/15 10:55:51;;;;;;;;;;;14.80;64.00;;;;;;5030956;28;20358;-60
2023/04/15 10:58:16;;;;;;;;;;;14.80;64.00;;;;;;5033329;28;20015;-61
2023/04/15 11:00:48;;;;;;;;;;;14.80;64.10;;;;;;5020625;28;19925;-61
2023/04/15 11:03:14;;;;;;;;;;;14.80;64.10;;;;;;5013454;28;19918;-61
2023/04/15 11:05:40;;;;;;;;;;;14.80;63.90;;;;;;5029037;28;19967;-61
2023/04/15 11:08:06;;;;;;;;;;;14.70;64.10;;;;;;5013300;28;19959;-60
2023/04/15 11:10:32;;;;;;;;;;;14.80;64.10;;;;;;5012974;28;19917;-61
2023/04/15 11:12:58;;;;;;;;;;;14.70;64.10;;;;;;5013106;28;19937;-61
2023/04/15 11:15:43;;;;;;;;;;;14.80;64.30;;;;;;5012684;28;19924;-61
2023/04/15 11:18:09;;;;;;;;;;;14.80;64.20;;;;;;5016871;28;20377;-63
2023/04/15 11:20:35;;;;;;;;;;;14.80;64.30;;;;;;5032894;28;19955;-61
2023/04/15 11:23:00;;;;;;;;;;;14.80;64.40;;;;;;5031629;28;19914;-61
2023/04/15 11:25:30;;;;;;;;;;;14.90;64.20;;;;;;5032479;28;19928;-61
2023/04/15 11:27:56;;;;;;;;;;;14.90;64.20;;;;;;5032412;28;20396;-62
2023/04/15 11:30:23;;;;;;;;;;;14.90;64.20;;;;;;5032610;28;19996;-61
2023/04/15 11:32:49;;;;;;;;;;;14.90;64.00;;;;;;5027905;28;20019;-62
2023/04/15 11:35:18;;;;;;;;;;;14.90;64.10;;;;;;5033669;28;20396;-62
2023/04/15 11:37:44;;;;;;;;;;;14.90;64.10;;;;;;5032134;28;19920;-61
2023/04/15 11:40:09;;;;;;;;;;;14.90;64.20;;;;;;5030728;28;19921;-62
2023/04/15 11:42:35;;;;;;;;;;;14.90;64.10;;;;;;5032396;28;20014;-61
2023/04/15 11:45:11;;;;;;;;;;;14.90;64.10;;;;;;5029083;28;19987;-62
2023/04/15 11:47:37;;;;;;;;;;;14.90;64.20;;;;;;5012470;28;19921;-61
2023/04/15 11:50:18;;;;;;;;;;;14.80;64.20;;;;;;5012138;28;19925;-62
2023/04/15 11:52:57;;;;;;;;;;;14.90;64.30;;;;;;5021590;28;19914;-61
2023/04/15 11:55:23;;;;;;;;;;;14.90;64.40;;;;;;5031365;28;19982;-61
2023/04/15 11:57:50;;;;;;;;;;;14.90;64.40;;;;;;5032218;28;20446;-61
2023/04/15 12:00:16;;;;;;;;;;;14.80;64.50;;;;;;5031918;28;20279;-61
2023/04/15 12:02:42;;;;;;;;;;;14.90;64.30;;;;;;5040194;28;19917;-61
2023/04/15 12:05:08;;;;;;;;;;;14.90;64.40;;;;;;5045423;28;20028;-61
2023/04/15 12:07:53;;;;;;;;;;;14.90;64.40;;;;;;5031969;28;19964;-61
2023/04/15 12:10:19;;;;;;;;;;;14.90;64.30;;;;;;5028801;28;19921;-61
2023/04/15 12:12:47;;;;;;;;;;;14.90;64.40;;;;;;5030675;28;19917;-61
2023/04/15 12:15:13;;;;;;;;;;;14.80;64.30;;;;;;5030802;28;19922;-61
2023/04/15 12:17:39;;;;;;;;;;;14.90;64.50;;;;;;5031778;28;19921;-61
2023/04/15 12:20:07;;;;;;;;;;;14.90;64.40;;;;;;5026047;28;19918;-62
2023/04/15 12:22:36;;;;;;;;;;;14.90;64.50;;;;;;5011905;28;19914;-62
2023/04/15 12:25:01;;;;;;;;;;;15.00;64.40;;;;;;5014829;28;19917;-62
2023/04/15 12:27:27;;;;;;;;;;;15.00;64.50;;;;;;5031847;28;19920;-62
2023/04/15 12:30:02;;;;;;;;;;;15.00;64.50;;;;;;5029523;28;19913;-62
2023/04/15 12:32:27;;;;;;;;;;;15.00;64.40;;;;;;5027158;28;19913;-62
2023/04/15 12:34:54;;;;;;;;;;;15.00;64.40;;;;;;5027165;28;19928;-63
2023/04/15 12:37:20;;;;;;;;;;;15.00;64.30;;;;;;5031708;28;19924;-62
2023/04/15 12:39:47;;;;;;;;;;;15.00;64.30;;;;;;5026936;28;19926;-62
2023/04/15 12:42:14;;;;;;;;;;;15.10;64.30;;;;;;5026799;28;19996;-63
2023/04/15 12:44:39;;;;;;;;;;;15.10;64.30;;;;;;5027286;28;19917;-62
2023/04/15 12:47:05;;;;;;;;;;;15.10;64.10;;;;;;5031205;28;19936;-62
2023/04/15 12:49:31;;;;;;;;;;;15.10;64.20;;;;;;5031918;28;20366;-61
2023/04/15 12:51:58;;;;;;;;;;;15.10;64.10;;;;;;5031075;28;19913;-61
2023/04/15 12:54:24;;;;;;;;;;;15.10;64.20;;;;;;5030855;28;20288;-61
2023/04/15 12:56:50;;;;;;;;;;;15.10;64.20;;;;;;5034588;28;19909;-61
2023/04/15 12:59:17;;;;;;;;;;;15.00;64.10;;;;;;5034823;28;20438;-61
2023/04/15 13:01:42;;;;;;;;;;;15.10;64.20;;;;;;5032981;28;19947;-62
2023/04/15 13:04:08;;;;;;;;;;;15.10;64.30;;;;;;5031609;28;19916;-60
2023/04/15 13:06:33;;;;;;;;;;;15.00;64.10;;;;;;5032464;28;19921;-61
2023/04/15 13:09:00;;;;;;;;;;;15.00;64.20;;;;;;5035330;28;20320;-61
2023/04/15 13:11:26;;;;;;;;;;;15.00;64.20;;;;;;5031482;28;19924;-61
2023/04/15 13:13:51;;;;;;;;;;;15.00;64.30;;;;;;5030459;28;19921;-62
2023/04/15 13:16:17;;;;;;;;;;;15.00;64.30;;;;;;5030708;28;19956;-62
2023/04/15 13:18:44;;;;;;;;;;;15.00;64.40;;;;;;5035482;28;19992;-62
2023/04/15 13:21:10;;;;;;;;;;;15.00;64.30;;;;;;5033380;28;19921;-61
2023/04/15 13:23:35;;;;;;;;;;;15.00;64.50;;;;;;5030850;28;20419;-62
2023/04/15 13:26:01;;;;;;;;;;;15.00;64.50;;;;;;5028756;28;19917;-62
2023/04/15 13:28:26;;;;;;;;;;;15.00;64.60;;;;;;5035259;28;19924;-61
2023/04/15 13:30:52;;;;;;;;;;;15.00;64.60;;;;;;5033344;28;19920;-62
2023/04/15 13:33:17;;;;;;;;;;;15.00;64.70;;;;;;5030371;28;19920;-61
2023/04/15 13:35:43;;;;;;;;;;;15.00;64.70;;;;;;5030312;28;19964;-62
2023/04/15 13:38:08;;;;;;;;;;;15.00;64.70;;;;;;5018365;28;19913;-61
2023/04/15 13:40:34;;;;;;;;;;;15.10;64.60;;;;;;5034249;28;19925;-61
2023/04/15 13:42:59;;;;;;;;;;;15.10;64.70;;;;;;5032567;28;19941;-62
2023/04/15 13:45:25;;;;;;;;;;;15.10;64.70;;;;;;5034607;28;19918;-62
2023/04/15 13:47:50;;;;;;;;;;;15.10;64.60;;;;;;5020399;28;19921;-63
2023/04/15 13:50:16;;;;;;;;;;;15.10;64.40;;;;;;5015749;28;19918;-62
2023/04/15 13:52:41;;;;;;;;;;;15.10;64.30;;;;;;5027742;28;20376;-62
2023/04/15 13:55:07;;;;;;;;;;;15.10;64.30;;;;;;5034055;28;19917;-64
2023/04/15 13:57:33;;;;;;;;;;;15.20;64.40;;;;;;5032803;28;19913;-62
2023/04/15 13:59:58;;;;;;;;;;;15.10;64.40;;;;;;5034247;28;19913;-62
2023/04/15 14:02:23;;;;;;;;;;;15.10;64.40;;;;;;5030736;28;19913;-62
2023/04/15 14:04:49;;;;;;;;;;;15.10;64.40;;;;;;5034487;28;19913;-62
2023/04/15 14:07:15;;;;;;;;;;;15.20;64.40;;;;;;5032416;28;19935;-62
2023/04/15 14:09:40;;;;;;;;;;;15.20;64.40;;;;;;5033065;28;19932;-62